createdAt,value
2019-04-10T00:02:17.503Z,100845.88
2019-04-10T00:04:51.630Z,100844.36
2019-04-10T00:07:25.703Z,100847.34
2019-04-10T00:09:59.335Z,100855.52
2019-04-10T00:12:33.801Z,100852.73
2019-04-10T00:15:07.980Z,100856.50
2019-04-10T00:17:41.543Z,100853.50
2019-04-10T00:20:16.211Z,100852.05
2019-04-10T00:22:50.667Z,100854.86
2019-04-10T00:25:24.470Z,100853.67
2019-04-10T00:27:59.019Z,100852.56
2019-04-10T00:30:33.279Z,100856.50
2019-04-10T00:33:08.114Z,100857.02
2019-04-10T00:35:41.748Z,100854.61
2019-04-10T00:38:15.670Z,100855.78
2019-04-10T00:40:49.939Z,100854.92
2019-04-10T00:43:24.628Z,100858.84
2019-04-10T00:45:58.376Z,100863.04
2019-04-10T00:48:32.371Z,100863.34
2019-04-10T00:51:06.785Z,100856.91
2019-04-10T00:53:41.253Z,100860.56
2019-04-10T00:56:14.963Z,100860.34
2019-04-10T00:58:48.493Z,100861.05
2019-04-10T01:01:22.165Z,100855.59
2019-04-10T01:03:56.419Z,100859.00
2019-04-10T01:06:30.460Z,100860.44
2019-04-10T01:09:06.795Z,100859.05
2019-04-10T01:11:41.330Z,100859.52
2019-04-10T01:14:15.869Z,100857.03
2019-04-10T01:16:49.830Z,100859.16
2019-04-10T01:19:23.846Z,100856.14
2019-04-10T01:21:57.695Z,100861.78
2019-04-10T01:24:31.623Z,100857.06
2019-04-10T01:27:05.564Z,100859.59
2019-04-10T01:29:39.880Z,100858.30
2019-04-10T01:32:13.630Z,100860.96
2019-04-10T01:34:47.223Z,100851.64
2019-04-10T01:37:21.448Z,100857.22
2019-04-10T01:39:55.034Z,100859.86
2019-04-10T01:42:28.983Z,100858.20
2019-04-10T01:45:02.895Z,100862.89
2019-04-10T01:47:37.204Z,100862.50
2019-04-10T01:50:12.436Z,100859.02
2019-04-10T01:52:47.066Z,100851.76
2019-04-10T01:55:25.840Z,100863.80
2019-04-10T01:57:57.552Z,100854.97
2019-04-10T02:00:31.908Z,100850.84
2019-04-10T02:03:06.224Z,100845.57
2019-04-10T02:05:40.782Z,100841.39
2019-04-10T02:08:17.198Z,100848.63
2019-04-10T02:10:50.210Z,100848.19
2019-04-10T02:13:24.185Z,100850.28
2019-04-10T02:15:58.580Z,100852.12
2019-04-10T02:18:33.135Z,100850.37
2019-04-10T02:21:07.520Z,100854.66
2019-04-10T02:23:42.502Z,100845.25
2019-04-10T02:26:17.084Z,100839.70
2019-04-10T02:28:51.391Z,100843.66
2019-04-10T02:31:26.415Z,100836.81
2019-04-10T02:34:01.767Z,100835.68
2019-04-10T02:36:36.270Z,100839.55
2019-04-10T02:39:21.841Z,100840.84
2019-04-10T02:41:45.896Z,100836.60
2019-04-10T02:44:20.621Z,100837.56
2019-04-10T02:46:55.676Z,100843.52
2019-04-10T02:49:30.064Z,100844.74
2019-04-10T02:52:04.155Z,100838.43
2019-04-10T02:54:37.777Z,100840.19
2019-04-10T02:57:11.506Z,100839.73
2019-04-10T02:59:45.369Z,100846.61
2019-04-10T03:02:20.267Z,100844.56
2019-04-10T03:04:55.140Z,100843.27
2019-04-10T03:07:29.047Z,100838.53
2019-04-10T03:10:15.324Z,100842.39
2019-04-10T03:12:38.744Z,100839.06
2019-04-10T03:15:12.953Z,100835.66
2019-04-10T03:17:48.265Z,100833.54
2019-04-10T03:20:22.470Z,100831.03
2019-04-10T03:22:56.877Z,100835.25
2019-04-10T03:25:30.918Z,100837.39
2019-04-10T03:28:05.068Z,100837.42
2019-04-10T03:30:39.571Z,100837.44
2019-04-10T03:33:33.742Z,100848.11
2019-04-10T03:36:07.420Z,100851.13
2019-04-10T03:38:54.568Z,100853.27
2019-04-10T03:41:17.794Z,100851.89
2019-04-10T03:43:52.229Z,100855.32
2019-04-10T03:46:25.837Z,100851.98
2019-04-10T03:48:59.455Z,100851.98
2019-04-10T03:51:33.028Z,100851.13
2019-04-10T03:54:06.867Z,100858.80
2019-04-10T03:56:40.523Z,100857.11
2019-04-10T03:59:14.171Z,100857.55
2019-04-10T04:01:47.704Z,100862.66
2019-04-10T04:04:21.641Z,100866.47
2019-04-10T04:06:55.783Z,100865.66
2019-04-10T04:09:29.476Z,100870.77
2019-04-10T04:12:04.075Z,100858.39
2019-04-10T04:14:38.801Z,100869.85
2019-04-10T04:17:13.565Z,100869.84
2019-04-10T04:19:48.174Z,100873.59
2019-04-10T04:22:22.870Z,100877.45
2019-04-10T04:24:58.079Z,100873.20
2019-04-10T04:27:31.755Z,100875.36
2019-04-10T04:30:06.409Z,100875.31
2019-04-10T04:32:40.133Z,100880.44
2019-04-10T04:35:15.380Z,100883.83
2019-04-10T04:37:49.033Z,100886.65
2019-04-10T04:40:23.571Z,100886.25
2019-04-10T04:42:57.917Z,100898.59
2019-04-10T04:45:31.643Z,100895.16
2019-04-10T04:48:05.462Z,100901.99
2019-04-10T04:50:39.614Z,100903.17
2019-04-10T04:53:14.176Z,100907.45
2019-04-10T04:55:48.215Z,100903.62
2019-04-10T04:58:24.135Z,100910.84
2019-04-10T05:00:58.574Z,100914.69
2019-04-10T05:03:33.403Z,100917.22
2019-04-10T05:06:08.057Z,100915.91
2019-04-10T05:08:42.045Z,100917.14
2019-04-10T05:11:15.790Z,100916.33
2019-04-10T05:13:49.660Z,100916.31
2019-04-10T05:16:23.207Z,100918.45
2019-04-10T05:18:56.741Z,100913.28
2019-04-10T05:21:30.324Z,100917.52
2019-04-10T05:24:03.940Z,100919.62
2019-04-10T05:26:37.544Z,100918.81
2019-04-10T05:29:11.190Z,100915.39
2019-04-10T05:31:45.076Z,100917.95
2019-04-10T05:34:18.636Z,100911.46
2019-04-10T05:36:53.143Z,100915.28
2019-04-10T05:39:34.354Z,100918.16
2019-04-10T05:42:02.758Z,100920.30
2019-04-10T05:44:36.447Z,100921.72
2019-04-10T05:47:13.662Z,100925.89
2019-04-10T05:49:47.822Z,100919.42
2019-04-10T05:52:22.311Z,100923.11
2019-04-10T05:54:55.996Z,100926.58
2019-04-10T05:57:29.525Z,100923.42
2019-04-10T06:00:03.271Z,100934.34
2019-04-10T06:02:36.787Z,100924.51
2019-04-10T06:05:10.362Z,100927.83
2019-04-10T06:07:43.912Z,100923.00
2019-04-10T06:10:17.586Z,100926.97
2019-04-10T06:12:51.255Z,100926.16
2019-04-10T06:15:24.847Z,100927.12
2019-04-10T06:17:58.760Z,100925.75
2019-04-10T06:20:33.503Z,100920.69
2019-04-10T06:23:07.457Z,100923.83
2019-04-10T06:25:42.038Z,100925.86
2019-04-10T06:28:16.969Z,100930.62
2019-04-10T06:30:52.276Z,100935.42
2019-04-10T06:33:27.115Z,100937.41
2019-04-10T06:36:01.209Z,100943.65
2019-04-10T06:38:35.064Z,100941.83
2019-04-10T06:41:08.702Z,100940.42
2019-04-10T06:43:43.363Z,100944.05
2019-04-10T06:46:17.086Z,100938.22
2019-04-10T06:48:50.622Z,100945.78
2019-04-10T06:51:25.051Z,100949.01
2019-04-10T06:54:05.062Z,100947.62
2019-04-10T06:56:35.443Z,100953.91
2019-04-10T06:59:09.061Z,100961.05
2019-04-10T07:01:49.544Z,100953.36
2019-04-10T07:04:21.854Z,100953.27
2019-04-10T07:07:04.566Z,100954.70
2019-04-10T07:09:31.873Z,100953.47
2019-04-10T07:12:05.603Z,100957.62
2019-04-10T07:14:44.009Z,100956.34
2019-04-10T07:17:17.970Z,100953.48
2019-04-10T07:19:53.450Z,100958.39
2019-04-10T07:22:27.494Z,100961.78
2019-04-10T07:25:02.889Z,100963.52
2019-04-10T07:27:39.806Z,100970.67
2019-04-10T07:30:14.006Z,100963.95
2019-04-10T07:32:49.169Z,100973.44
2019-04-10T07:35:23.683Z,100971.96
2019-04-10T07:37:58.514Z,100973.79
2019-04-10T07:40:36.116Z,100968.58
2019-04-10T07:43:08.139Z,100969.48
2019-04-10T07:45:41.724Z,100973.52
2019-04-10T07:48:16.383Z,100972.45
2019-04-10T07:50:51.580Z,100983.98
2019-04-10T07:53:25.295Z,100986.50
2019-04-10T08:52:16.959Z,100982.96
2019-04-10T08:55:08.009Z,100976.72
2019-04-10T08:57:58.613Z,100978.59
2019-04-10T09:00:49.806Z,100977.16
2019-04-10T09:03:39.844Z,100981.97
2019-04-10T09:06:31.514Z,100978.92
2019-04-10T09:09:22.313Z,100974.97
2019-04-10T09:12:12.148Z,100988.61
2019-04-10T09:15:02.650Z,100987.44
2019-04-10T09:17:52.620Z,100985.96
2019-04-10T09:20:42.777Z,100988.49
2019-04-10T09:23:40.918Z,100987.09
2019-04-10T09:26:24.485Z,100993.72
2019-04-10T09:29:14.565Z,100982.37
2019-04-10T09:32:06.398Z,100985.70
2019-04-10T09:34:56.246Z,100979.06
2019-04-10T09:37:46.333Z,100976.69
2019-04-10T09:40:20.495Z,100984.84
2019-04-10T09:42:59.722Z,100982.63
2019-04-10T09:45:35.217Z,100980.13
2019-04-10T09:48:13.537Z,100974.44
2019-04-10T09:50:48.225Z,100984.98
2019-04-10T09:53:21.983Z,100984.16
2019-04-10T09:55:56.684Z,100977.59
2019-04-10T09:58:31.769Z,100981.38
2019-04-10T10:01:10.369Z,100969.95
2019-04-10T10:03:44.494Z,100964.87
2019-04-10T10:06:26.096Z,100961.41
2019-04-10T10:08:54.322Z,100965.80
2019-04-10T10:11:34.120Z,100974.08
2019-04-10T10:14:07.865Z,100963.22
2019-04-10T10:19:36.648Z,100957.95
2019-04-10T10:22:27.394Z,100964.17
2019-04-10T10:25:17.485Z,100971.59
2019-04-10T10:28:07.416Z,100965.80
2019-04-10T10:30:57.891Z,100969.63
2019-04-10T10:33:48.104Z,100985.05
2019-04-10T10:36:41.975Z,100970.23
2019-04-10T10:39:28.840Z,100978.65
2019-04-10T10:42:19.364Z,100974.92
2019-04-10T10:45:10.511Z,100976.14
2019-04-10T10:48:01.605Z,100961.41
2019-04-10T10:50:51.692Z,100969.28
2019-04-10T10:53:41.240Z,100959.00
2019-04-10T10:56:30.852Z,100954.44
2019-04-10T10:59:21.826Z,100972.05
2019-04-10T11:02:12.638Z,100967.72
2019-04-10T11:05:05.507Z,100953.98
2019-04-10T11:07:55.800Z,100962.28
2019-04-10T11:10:50.477Z,100974.72
2019-04-10T11:13:39.223Z,100959.77
2019-04-10T11:16:31.317Z,100962.93
2019-04-10T11:19:21.390Z,100960.71
2019-04-10T11:22:14.065Z,100949.78
2019-04-10T11:25:04.005Z,100960.78
2019-04-10T11:27:54.047Z,100951.24
2019-04-10T11:30:44.947Z,100960.30
2019-04-10T11:33:37.296Z,100956.50
2019-04-10T11:36:28.247Z,100954.81
2019-04-10T11:39:26.032Z,100948.18
2019-04-10T11:42:12.550Z,100945.23
2019-04-10T11:45:05.208Z,100945.01
2019-04-10T11:47:54.220Z,100947.27
2019-04-10T11:50:44.430Z,100940.65
2019-04-10T11:53:37.473Z,100954.44
2019-04-10T11:56:26.838Z,100967.03
2019-04-10T11:59:21.158Z,100967.67
2019-04-10T12:02:10.116Z,100971.33
2019-04-10T12:05:08.583Z,100970.61
2019-04-10T12:08:17.892Z,100971.98
2019-04-10T12:13:34.520Z,100960.75
2019-04-10T12:16:25.159Z,100959.84
2019-04-10T12:19:15.915Z,100951.95
2019-04-10T12:22:07.373Z,100958.94
2019-04-10T12:24:57.196Z,100957.84
2019-04-10T12:27:47.385Z,100969.94
2019-04-10T12:30:37.467Z,100976.20
2019-04-10T12:33:29.586Z,100967.22
2019-04-10T12:36:20.516Z,100974.80
2019-04-10T12:39:12.771Z,100972.86
2019-04-10T12:42:04.287Z,100962.53
2019-04-10T12:44:54.357Z,100957.72
2019-04-10T12:47:44.694Z,100952.22
2019-04-10T12:50:37.300Z,100948.98
2019-04-10T12:53:27.511Z,100945.87
2019-04-10T12:56:17.812Z,100956.97
2019-04-10T12:59:08.881Z,100957.06
2019-04-10T13:01:59.088Z,100955.06
2019-04-10T13:04:49.035Z,100951.46
2019-04-10T13:07:39.990Z,100947.50
2019-04-10T13:10:30.032Z,100948.72
2019-04-10T13:13:20.128Z,100941.72
2019-04-10T13:16:09.922Z,100948.75
2019-04-10T13:19:00.613Z,100942.91
2019-04-10T13:21:50.326Z,100944.66
2019-04-10T13:24:39.726Z,100946.72
2019-04-10T13:27:30.529Z,100938.14
2019-04-10T13:30:20.883Z,100942.05
2019-04-10T13:33:11.924Z,100946.20
2019-04-10T13:36:03.123Z,100939.94
2019-04-10T13:38:52.728Z,100937.16
2019-04-10T13:41:43.116Z,100938.94
2019-04-10T13:44:34.891Z,100931.51
2019-04-10T13:47:25.854Z,100933.43
2019-04-10T13:50:16.810Z,100938.14
2019-04-10T13:53:06.292Z,100938.05
2019-04-10T13:55:56.915Z,100934.28
2019-04-10T13:58:48.772Z,100940.29
2019-04-10T14:01:39.859Z,100944.63
2019-04-10T14:04:29.603Z,100943.02
2019-04-10T14:07:19.879Z,100945.34
2019-04-10T14:10:12.502Z,100947.84
2019-04-10T14:13:03.136Z,100931.52
2019-04-10T14:15:52.648Z,100937.33
2019-04-10T14:18:43.090Z,100939.32
2019-04-10T14:21:33.655Z,100938.41
2019-04-10T14:24:24.849Z,100945.41
2019-04-10T14:27:18.291Z,100935.20
2019-04-10T14:30:13.296Z,100945.69
2019-04-10T14:33:02.970Z,100941.01
2019-04-10T14:35:53.658Z,100951.08
2019-04-10T14:38:43.856Z,100947.70
2019-04-10T14:41:33.758Z,100944.03
2019-04-10T14:44:23.428Z,100942.73
2019-04-10T14:47:14.966Z,100946.09
2019-04-10T14:50:05.310Z,100952.31
2019-04-10T14:52:55.095Z,100943.80
2019-04-10T14:55:45.873Z,100962.07
2019-04-10T14:58:35.574Z,100956.38
2019-04-10T15:01:26.188Z,100960.94
2019-04-10T15:04:17.176Z,100953.00
2019-04-10T15:07:08.082Z,100943.13
2019-04-10T15:09:57.744Z,100949.22
2019-04-10T15:12:47.953Z,100959.75
2019-04-10T15:15:38.728Z,100961.57
2019-04-10T15:18:28.824Z,100954.80
2019-04-10T15:21:18.802Z,100950.75
2019-04-10T15:24:08.945Z,100950.55
2019-04-10T15:27:00.585Z,100959.15
2019-04-10T15:29:50.182Z,100957.70
2019-04-10T15:32:40.088Z,100963.20
2019-04-10T15:35:30.771Z,100967.00
2019-04-10T15:38:20.761Z,100958.61
2019-04-10T15:41:10.640Z,100963.19
2019-04-10T15:44:01.508Z,100964.72
2019-04-10T15:46:51.951Z,100964.47
2019-04-10T15:49:43.009Z,100972.42
2019-04-10T15:52:33.391Z,100968.45
2019-04-10T15:55:23.918Z,100972.72
2019-04-10T15:58:14.988Z,100974.70
2019-04-10T16:01:06.406Z,100972.66
2019-04-10T16:03:56.063Z,100965.84
2019-04-10T16:06:47.304Z,100976.23
2019-04-10T16:09:45.518Z,100975.00
2019-04-10T16:12:30.345Z,100973.45
2019-04-10T16:15:21.534Z,100980.39
2019-04-10T16:18:15.630Z,100983.02
2019-04-10T16:21:06.511Z,100983.09
2019-04-10T16:24:02.485Z,100980.67
2019-04-10T16:26:51.894Z,100979.20
2019-04-10T16:29:42.808Z,100979.37
2019-04-10T16:32:33.112Z,100978.96
2019-04-10T16:35:23.367Z,100989.25
2019-04-10T16:38:14.213Z,100985.47
2019-04-10T16:41:04.724Z,100987.84
2019-04-10T16:43:54.908Z,100992.67
2019-04-10T16:46:45.221Z,100991.26
2019-04-10T16:49:35.104Z,100994.63
2019-04-10T16:52:25.494Z,100999.96
2019-04-10T16:55:15.910Z,100993.55
2019-04-10T16:58:07.451Z,101001.59
2019-04-10T17:00:58.133Z,101000.80
2019-04-10T17:03:49.672Z,100993.09
2019-04-10T17:06:39.785Z,100995.41
2019-04-10T17:09:32.420Z,100999.97
2019-04-10T17:12:22.607Z,101000.73
2019-04-10T17:15:13.797Z,100998.79
2019-04-10T17:18:03.254Z,101001.71
2019-04-10T17:20:53.536Z,101005.20
2019-04-10T17:23:43.173Z,101004.02
2019-04-10T17:26:35.004Z,101000.33
2019-04-10T17:29:27.141Z,101004.94
2019-04-10T17:32:17.272Z,101004.06
2019-04-10T17:35:09.577Z,101010.11
2019-04-10T17:38:00.252Z,101013.58
2019-04-10T17:40:54.723Z,101009.28
2019-04-10T17:43:43.356Z,101012.03
2019-04-10T17:46:33.828Z,101016.78
2019-04-10T17:49:25.504Z,101020.05
2019-04-10T17:52:16.618Z,101023.03
2019-04-10T17:55:07.780Z,101024.30
2019-04-10T17:57:58.367Z,101033.13
2019-04-10T18:00:52.021Z,101036.27
2019-04-10T18:03:50.432Z,101032.72
2019-04-10T18:06:33.855Z,101033.42
2019-04-10T18:09:25.053Z,101040.35
2019-04-10T18:12:16.377Z,101042.67
2019-04-10T18:15:08.053Z,101055.66
2019-04-10T18:17:59.723Z,101063.13
2019-04-10T18:20:51.228Z,101060.70
2019-04-10T18:23:41.920Z,101065.96
2019-04-10T18:26:31.967Z,101071.56
2019-04-10T18:29:21.856Z,101078.30
2019-04-10T18:32:12.208Z,101086.23
2019-04-10T18:35:03.004Z,101090.24
2019-04-10T18:37:53.608Z,101089.66
2019-04-10T18:40:54.957Z,101092.59
2019-04-10T18:43:36.144Z,101099.28
2019-04-10T18:46:27.059Z,101096.30
2019-04-10T18:49:17.385Z,101105.08
2019-04-10T18:52:07.668Z,101104.98
2019-04-10T18:54:58.520Z,101111.32
2019-04-10T18:57:49.376Z,101120.11
2019-04-10T19:00:58.749Z,101123.09
2019-04-10T19:04:24.530Z,101133.05
2019-04-10T19:07:15.359Z,101128.34
2019-04-10T19:10:08.752Z,101128.20
2019-04-10T19:12:59.520Z,101129.54
2019-04-10T19:15:49.412Z,101130.93
2019-04-10T19:18:39.537Z,101136.00
2019-04-10T19:21:31.631Z,101138.41
2019-04-10T19:24:23.752Z,101137.69
2019-04-10T19:27:15.914Z,101140.05
2019-04-10T19:30:26.798Z,101141.39
2019-04-10T19:33:16.711Z,101147.34
2019-04-10T19:36:07.695Z,101143.80
2019-04-10T19:38:57.908Z,101158.06
2019-04-10T19:41:48.983Z,101160.17
2019-04-10T19:44:41.370Z,101159.58
2019-04-10T19:47:34.703Z,101156.53
2019-04-10T19:50:25.534Z,101160.75
2019-04-10T19:53:19.268Z,101161.67
2019-04-10T19:56:12.945Z,101169.08
2019-04-10T19:59:02.934Z,101167.09
2019-04-10T20:01:53.101Z,101169.47
2019-04-10T20:04:43.370Z,101173.00
2019-04-10T20:07:33.395Z,101166.89
2019-04-10T20:10:23.471Z,101176.14
2019-04-10T20:13:14.467Z,101176.15
2019-04-10T20:16:06.967Z,101177.39
2019-04-10T20:18:59.217Z,101177.70
2019-04-10T20:21:52.333Z,101181.69
2019-04-10T20:24:43.109Z,101188.23
2019-04-10T20:27:40.575Z,101187.09
2019-04-10T20:30:32.836Z,101193.17
2019-04-10T20:33:24.992Z,101193.88
2019-04-10T20:36:15.489Z,101196.69
2019-04-10T20:39:07.770Z,101200.97
2019-04-10T20:42:00.895Z,101203.47
2019-04-10T20:44:51.774Z,101208.76
2019-04-10T20:47:41.497Z,101207.70
2019-04-10T20:50:32.105Z,101218.32
2019-04-10T20:53:22.171Z,101215.36
2019-04-10T20:56:12.580Z,101216.33
2019-04-10T20:59:03.503Z,101226.39
2019-04-10T21:01:55.811Z,101227.00
2019-04-10T21:04:54.519Z,101221.11
2019-04-10T21:07:37.517Z,101226.52
2019-04-10T21:10:28.996Z,101231.61
2019-04-10T21:13:19.143Z,101235.08
2019-04-10T21:16:09.285Z,101238.69
2019-04-10T21:19:00.275Z,101239.67
2019-04-10T21:21:51.062Z,101243.91
2019-04-10T21:24:43.345Z,101246.57
2019-04-10T21:27:34.193Z,101249.56
2019-04-10T21:30:36.121Z,101253.05
2019-04-10T21:33:47.389Z,101251.03
2019-04-10T21:36:37.864Z,101254.39
2019-04-10T21:39:27.831Z,101255.28
2019-04-10T21:42:22.214Z,101257.02
2019-04-10T21:45:09.641Z,101261.07
2019-04-10T21:47:59.965Z,101264.33
2019-04-10T21:50:49.688Z,101262.30
2019-04-10T21:53:40.811Z,101264.48
2019-04-10T21:56:30.977Z,101267.20
2019-04-10T21:59:21.206Z,101271.61
2019-04-10T22:02:11.140Z,101267.73
2019-04-10T22:05:01.020Z,101267.91
2019-04-10T22:08:12.518Z,101264.80
2019-04-10T22:11:02.903Z,101266.57
2019-04-10T22:13:53.335Z,101263.06
2019-04-10T22:16:44.028Z,101266.61
2019-04-10T22:19:35.718Z,101266.99
2019-04-10T22:22:25.324Z,101273.94
2019-04-10T22:25:15.259Z,101270.48
2019-04-10T22:28:06.368Z,101275.34
2019-04-10T22:30:56.120Z,101269.65
2019-04-10T22:33:46.791Z,101276.13
2019-04-10T22:36:37.416Z,101278.56
2019-04-10T22:39:31.678Z,101277.02
2019-04-10T22:42:33.893Z,101278.97
2019-04-10T22:45:31.276Z,101276.05
2019-04-10T22:48:23.010Z,101280.78
2019-04-10T22:51:13.125Z,101284.64
2019-04-10T22:54:04.362Z,101290.10
2019-04-10T22:56:54.509Z,101291.17
2019-04-10T22:59:46.766Z,101298.67
2019-04-10T23:02:37.650Z,101290.20
2019-04-10T23:05:28.760Z,101292.87
2019-04-10T23:08:19.810Z,101299.71
2019-04-10T23:11:10.394Z,101296.72
2019-04-10T23:14:00.557Z,101301.92
2019-04-10T23:16:52.557Z,101292.05
2019-04-10T23:19:42.573Z,101296.77
2019-04-10T23:22:33.756Z,101293.29
2019-04-10T23:25:24.692Z,101304.06
2019-04-10T23:28:15.653Z,101313.21
2019-04-10T23:31:05.694Z,101304.11
2019-04-10T23:33:58.658Z,101307.94
2019-04-10T23:36:48.866Z,101306.75
2019-04-10T23:39:40.601Z,101310.58
2019-04-10T23:42:30.379Z,101311.50
2019-04-10T23:45:21.818Z,101314.63
2019-04-10T23:48:12.852Z,101315.06
2019-04-10T23:51:07.064Z,101315.48
2019-04-10T23:53:57.212Z,101315.95
2019-04-10T23:56:49.382Z,101313.43
2019-04-10T23:59:39.189Z,101322.30
